Time;durP1;ratioP1;P1;durP2;ratioP2;P2;SDS_P1;SDS_P2;PMS_P1;PMS_P2;Temp;Humidity;BMP_temperature;BMP_pressure;BME280_temperature;BME280_humidity;BME280_pressure;Samples;Min_cycle;Max_cycle;Signal;HPM_P1;HPM_P2
2021/11/16 00:01:11;;;;;;;67.57;39.20;;;5.80;99.90;;;;;;5061196;28;20040;-69
2021/11/16 00:03:37;;;;;;;63.85;37.78;;;5.80;99.90;;;;;;5061502;28;20036;-69
2021/11/16 00:06:03;;;;;;;66.05;38.20;;;5.80;99.90;;;;;;5061217;28;20052;-69
2021/11/16 00:08:29;;;;;;;61.75;38.00;;;5.80;99.90;;;;;;5058640;28;20048;-69
2021/11/16 00:10:55;;;;;;;62.33;37.65;;;5.80;99.90;;;;;;5060747;28;20040;-69
2021/11/16 00:13:21;;;;;;;65.38;38.17;;;5.80;99.90;;;;;;5064306;28;20083;-69
2021/11/16 00:15:47;;;;;;;62.05;37.13;;;5.80;99.90;;;;;;5059538;28;20037;-68
2021/11/16 00:18:16;;;;;;;61.25;37.60;;;5.70;99.90;;;;;;5058404;28;20041;-69
2021/11/16 00:20:44;;;;;;;59.88;37.10;;;5.70;99.90;;;;;;5060325;28;20056;-69
2021/11/16 00:23:18;;;;;;;61.80;35.92;;;5.70;99.90;;;;;;5061786;28;20620;-69
2021/11/16 00:25:54;;;;;;;64.47;38.38;;;5.70;99.90;;;;;;5062370;28;20631;-69
2021/11/16 00:28:22;;;;;;;64.55;38.53;;;5.70;99.90;;;;;;5058248;28;20045;-69
2021/11/16 00:30:47;;;;;;;65.22;38.72;;;5.70;99.90;;;;;;5077220;28;20075;-69
2021/11/16 00:33:14;;;;;;;61.03;36.17;;;5.70;99.90;;;;;;5060982;28;20075;-69
2021/11/16 00:35:40;;;;;;;67.30;38.50;;;5.70;99.90;;;;;;5059671;28;20044;-69
2021/11/16 00:38:08;;;;;;;68.05;38.00;;;5.70;99.90;;;;;;5058793;28;20078;-69
2021/11/16 00:40:35;;;;;;;65.72;38.92;;;5.70;99.90;;;;;;5059527;28;20132;-69
2021/11/16 00:43:04;;;;;;;64.93;38.85;;;5.80;99.90;;;;;;5061263;28;20052;-69
2021/11/16 00:45:30;;;;;;;72.93;40.88;;;5.80;99.90;;;;;;5061243;28;20048;-69
2021/11/16 00:47:55;;;;;;;68.13;40.55;;;5.70;99.90;;;;;;5060181;28;20052;-69
2021/11/16 00:50:22;;;;;;;71.20;39.55;;;5.80;99.90;;;;;;5057859;28;20492;-69
2021/11/16 00:52:49;;;;;;;62.10;38.05;;;5.80;99.90;;;;;;5060974;28;20045;-69
2021/11/16 00:55:15;;;;;;;65.53;38.17;;;5.80;99.90;;;;;;5060058;28;20048;-69
2021/11/16 00:57:41;;;;;;;66.75;37.17;;;5.80;99.90;;;;;;5058518;28;20044;-69
2021/11/16 01:00:10;;;;;;;62.90;37.25;;;5.80;99.90;;;;;;5056046;28;20086;-69
2021/11/16 01:02:36;;;;;;;60.88;37.33;;;5.70;99.90;;;;;;5060003;28;20146;-69
2021/11/16 01:05:02;;;;;;;69.40;39.50;;;5.80;99.90;;;;;;5063088;28;20037;-69
2021/11/16 01:07:29;;;;;;;70.90;39.50;;;5.80;99.90;;;;;;5060424;28;20066;-69
2021/11/16 01:09:54;;;;;;;66.88;38.55;;;5.70;99.90;;;;;;5058449;28;20402;-69
2021/11/16 01:12:21;;;;;;;64.82;38.22;;;5.80;99.90;;;;;;5044187;28;20043;-69
2021/11/16 01:14:46;;;;;;;68.78;38.47;;;5.80;99.90;;;;;;5059039;28;20141;-69
2021/11/16 01:17:13;;;;;;;70.18;39.83;;;5.90;99.90;;;;;;5058650;28;20481;-69
2021/11/16 01:19:40;;;;;;;60.97;37.45;;;5.80;99.90;;;;;;5090086;28;20145;-69
2021/11/16 01:22:05;;;;;;;63.28;37.75;;;5.80;99.90;;;;;;5060180;28;20525;-69
2021/11/16 01:24:31;;;;;;;64.95;37.05;;;5.80;99.90;;;;;;5057866;28;20045;-69
2021/11/16 01:26:57;;;;;;;62.40;35.75;;;5.90;99.90;;;;;;5059805;28;20048;-69
2021/11/16 01:29:24;;;;;;;57.72;34.55;;;5.80;99.90;;;;;;5053365;28;20036;-69
2021/11/16 01:31:52;;;;;;;65.90;35.78;;;5.80;99.90;;;;;;5059106;28;20153;-69
2021/11/16 01:34:24;;;;;;;58.95;33.08;;;5.70;99.90;;;;;;5055238;28;20390;-69
2021/11/16 01:36:50;;;;;;;57.05;34.35;;;5.80;99.90;;;;;;5059417;28;20505;-69
2021/11/16 01:39:16;;;;;;;59.00;34.78;;;5.80;99.90;;;;;;5054368;28;20041;-69
2021/11/16 01:41:42;;;;;;;61.17;35.28;;;5.80;99.90;;;;;;5088341;28;20040;-69
2021/11/16 01:44:10;;;;;;;54.47;32.80;;;5.80;99.90;;;;;;5060515;28;20036;-69
2021/11/16 01:46:36;;;;;;;56.97;31.65;;;5.70;99.90;;;;;;5060545;28;20102;-69
2021/11/16 01:49:03;;;;;;;62.53;35.45;;;5.70;99.90;;;;;;5055928;28;20044;-69
2021/11/16 01:51:30;;;;;;;61.78;34.40;;;5.70;99.90;;;;;;5059555;28;20482;-69
2021/11/16 01:54:01;;;;;;;59.60;33.97;;;5.70;99.90;;;;;;5059829;28;20049;-69
2021/11/16 01:56:29;;;;;;;61.67;35.30;;;5.70;99.90;;;;;;5059025;28;20048;-69
2021/11/16 01:58:58;;;;;;;60.33;35.17;;;5.70;99.90;;;;;;5054141;28;20095;-69
2021/11/16 02:01:25;;;;;;;64.13;34.60;;;5.70;99.90;;;;;;5059148;28;20128;-69
2021/11/16 02:03:51;;;;;;;63.58;35.00;;;5.70;99.90;;;;;;5058384;28;20047;-69
2021/11/16 02:06:27;;;;;;;58.40;34.90;;;5.70;99.90;;;;;;5061241;28;20041;-69
2021/11/16 02:08:55;;;;;;;61.03;34.72;;;5.70;99.90;;;;;;5055880;28;20036;-69
2021/11/16 02:11:21;;;;;;;65.82;34.40;;;5.70;99.90;;;;;;5058387;28;20085;-69
2021/11/16 02:13:46;;;;;;;56.95;32.15;;;5.80;99.90;;;;;;5058929;28;20051;-69
2021/11/16 02:16:13;;;;;;;54.42;32.88;;;5.80;99.90;;;;;;5060266;28;20390;-69
2021/11/16 02:18:39;;;;;;;61.80;34.92;;;5.80;99.90;;;;;;5041114;28;20052;-69
2021/11/16 02:21:06;;;;;;;58.10;33.63;;;5.80;99.90;;;;;;5074552;28;20036;-69
2021/11/16 02:23:33;;;;;;;59.90;33.90;;;5.80;99.90;;;;;;5059127;28;20056;-69
2021/11/16 02:25:59;;;;;;;57.25;32.25;;;5.70;99.90;;;;;;5057845;28;20032;-69
2021/11/16 02:28:25;;;;;;;62.42;33.92;;;5.80;99.90;;;;;;5055179;28;20055;-69
2021/11/16 02:30:51;;;;;;;60.67;34.53;;;5.70;99.90;;;;;;5059172;28;20131;-69
2021/11/16 02:33:17;;;;;;;61.85;34.17;;;5.70;99.90;;;;;;5058765;28;20041;-69
2021/11/16 02:35:44;;;;;;;67.63;33.80;;;5.80;99.90;;;;;;5058091;28;20044;-69
2021/11/16 02:38:10;;;;;;;58.45;32.22;;;5.80;99.90;;;;;;5057187;28;20044;-69
2021/11/16 02:40:36;;;;;;;61.58;33.38;;;5.70;99.90;;;;;;5059378;28;20029;-69
2021/11/16 02:43:04;;;;;;;67.72;35.13;;;5.70;99.90;;;;;;5090771;28;20063;-69
2021/11/16 02:45:30;;;;;;;61.20;33.92;;;5.60;99.90;;;;;;5062952;28;20032;-69
2021/11/16 02:47:56;;;;;;;68.63;35.53;;;5.60;99.90;;;;;;5060938;28;20052;-69
2021/11/16 02:50:23;;;;;;;72.85;36.45;;;5.60;99.90;;;;;;5060124;28;20032;-69
2021/11/16 02:52:49;;;;;;;67.78;35.75;;;5.60;99.90;;;;;;5065605;28;20045;-69
2021/11/16 02:55:16;;;;;;;63.92;33.72;;;5.60;99.90;;;;;;5052018;28;20513;-69
2021/11/16 02:57:42;;;;;;;61.70;33.08;;;5.50;99.90;;;;;;5062425;28;20095;-69
2021/11/16 03:00:12;;;;;;;67.35;35.92;;;5.50;99.90;;;;;;5063153;28;20085;-68
2021/11/16 03:02:45;;;;;;;63.92;36.15;;;5.50;99.90;;;;;;5062976;28;20072;-69
2021/11/16 03:05:11;;;;;;;68.40;35.38;;;5.50;99.90;;;;;;5066941;28;20048;-69
2021/11/16 03:07:44;;;;;;;64.78;36.03;;;5.60;99.90;;;;;;5064173;28;20032;-69
2021/11/16 03:10:10;;;;;;;64.53;33.40;;;5.60;99.90;;;;;;5060600;28;20041;-69
2021/11/16 03:12:36;;;;;;;66.85;35.83;;;5.60;99.90;;;;;;5065957;28;20045;-69
2021/11/16 03:15:03;;;;;;;64.65;36.50;;;5.60;99.90;;;;;;5067485;28;20044;-69
2021/11/16 03:17:28;;;;;;;63.97;37.05;;;5.60;99.90;;;;;;5062540;28;20079;-69
2021/11/16 03:19:54;;;;;;;66.20;33.33;;;5.60;99.90;;;;;;5061477;28;20409;-69
2021/11/16 03:22:30;;;;;;;65.97;34.22;;;5.60;99.90;;;;;;5067006;28;20033;-69
2021/11/16 03:24:57;;;;;;;;;;;5.60;99.90;;;;;;5067346;28;20059;-69
2021/11/16 03:27:30;;;;;;;68.57;36.70;;;5.70;99.90;;;;;;5065815;28;20370;-69
2021/11/16 03:29:58;;;;;;;64.28;35.65;;;5.70;99.90;;;;;;5062823;28;20613;-69
2021/11/16 03:32:31;;;;;;;71.43;36.47;;;5.70;99.90;;;;;;5067211;28;20052;-69
2021/11/16 03:34:57;;;;;;;69.15;35.60;;;5.60;99.90;;;;;;5062967;28;20352;-69
2021/11/16 03:37:25;;;;;;;66.70;35.25;;;5.70;99.90;;;;;;5078503;28;20041;-69
2021/11/16 03:39:53;;;;;;;70.93;39.05;;;5.70;99.90;;;;;;5059913;28;20048;-69
2021/11/16 03:42:19;;;;;;;72.20;38.35;;;5.60;99.90;;;;;;5066463;28;20048;-69
2021/11/16 03:44:44;;;;;;;72.88;36.67;;;5.60;99.90;;;;;;5061206;28;20033;-69
2021/11/16 03:47:11;;;;;;;69.05;36.13;;;5.70;99.90;;;;;;5061952;28;20037;-69
2021/11/16 03:49:37;;;;;;;72.80;37.13;;;5.80;99.90;;;;;;5059724;28;20048;-69
2021/11/16 03:52:03;;;;;;;71.85;36.25;;;5.70;99.90;;;;;;5065912;28;20048;-69
2021/11/16 03:54:29;;;;;;;64.80;34.65;;;5.70;99.90;;;;;;5063283;28;20036;-69
2021/11/16 03:57:00;;;;;;;62.10;35.38;;;5.70;99.90;;;;;;5065062;28;20498;-69
2021/11/16 03:59:28;;;;;;;74.60;37.20;;;5.80;99.90;;;;;;5063093;28;20123;-69
2021/11/16 04:01:54;;;;;;;68.35;36.55;;;5.70;99.90;;;;;;5065186;28;20048;-69
2021/11/16 04:04:20;;;;;;;72.15;38.03;;;5.70;99.90;;;;;;5065551;28;20040;-69
2021/11/16 04:06:46;;;;;;;69.82;36.83;;;5.70;99.90;;;;;;5062819;28;20044;-69
2021/11/16 04:09:11;;;;;;;72.10;36.65;;;5.70;99.90;;;;;;5059300;28;20483;-69
2021/11/16 04:11:37;;;;;;;75.68;37.67;;;5.70;99.90;;;;;;5047690;28;20024;-69
2021/11/16 04:14:02;;;;;;;74.05;37.78;;;5.70;99.90;;;;;;5064617;28;20159;-68
2021/11/16 04:16:28;;;;;;;66.05;35.72;;;5.80;99.90;;;;;;5066543;28;20051;-69
2021/11/16 04:18:54;;;;;;;73.90;37.70;;;5.80;99.90;;;;;;5061407;28;20036;-69
2021/11/16 04:21:20;;;;;;;77.97;38.92;;;5.70;99.90;;;;;;5064027;28;20136;-69
2021/11/16 04:23:46;;;;;;;67.97;36.63;;;5.60;99.90;;;;;;5067327;28;20067;-69
2021/11/16 04:26:11;;;;;;;74.47;36.50;;;5.60;99.90;;;;;;5062418;28;20036;-69
2021/11/16 04:28:38;;;;;;;73.53;37.50;;;5.60;99.90;;;;;;5060491;28;20048;-69
2021/11/16 04:31:04;;;;;;;70.00;34.28;;;5.60;99.90;;;;;;5062127;28;20048;-69
2021/11/16 04:33:31;;;;;;;72.53;36.30;;;5.60;99.90;;;;;;5066771;28;20444;-69
2021/11/16 04:35:57;;;;;;;64.47;33.80;;;5.70;99.90;;;;;;5066473;28;20128;-69
2021/11/16 04:38:23;;;;;;;69.95;34.40;;;5.60;99.90;;;;;;5060094;28;20053;-69
2021/11/16 04:41:02;;;;;;;67.13;34.17;;;5.60;99.90;;;;;;5062743;28;20648;-69
2021/11/16 04:43:29;;;;;;;68.68;34.92;;;5.60;99.90;;;;;;5062285;28;21247;-69
2021/11/16 04:45:59;;;;;;;65.45;34.47;;;5.60;99.90;;;;;;5062318;28;20085;-69
2021/11/16 04:51:28;;;;;;;72.18;34.17;;;5.60;99.90;;;;;;5065867;28;20816;-69
2021/11/16 05:04:34;;;;;;;70.05;33.90;;;5.60;99.90;;;;;;5062058;28;20425;-69
2021/11/16 05:07:01;;;;;;;63.72;32.92;;;5.50;99.90;;;;;;5064953;28;20036;-69
2021/11/16 05:09:26;;;;;;;64.63;32.67;;;5.50;99.90;;;;;;5060846;28;20478;-69
2021/11/16 05:11:54;;;;;;;68.32;32.75;;;5.50;99.90;;;;;;5078107;28;20086;-69
2021/11/16 05:14:20;;;;;;;67.10;33.60;;;5.40;99.90;;;;;;5062098;28;20051;-69
2021/11/16 05:16:46;;;;;;;61.95;31.67;;;5.50;99.90;;;;;;5063880;28;20127;-69
2021/11/16 05:19:11;;;;;;;66.30;32.45;;;5.50;99.90;;;;;;5060030;28;20087;-69
2021/11/16 05:21:37;;;;;;;72.63;32.97;;;5.60;99.90;;;;;;5064027;28;20091;-69
2021/11/16 05:24:03;;;;;;;63.47;31.88;;;5.60;99.90;;;;;;5096463;28;20055;-69
2021/11/16 05:26:29;;;;;;;68.18;34.47;;;5.70;99.90;;;;;;5059219;28;20040;-69
2021/11/16 05:28:57;;;;;;;74.00;35.95;;;5.70;99.90;;;;;;5057278;28;20043;-69
2021/11/16 05:31:23;;;;;;;67.05;34.38;;;5.60;99.90;;;;;;5060416;28;20041;-69
2021/11/16 05:33:50;;;;;;;73.25;35.92;;;5.50;99.90;;;;;;5059548;28;21598;-69
2021/11/16 05:36:17;;;;;;;70.75;35.80;;;5.60;99.90;;;;;;5053906;28;20053;-69
2021/11/16 05:38:47;;;;;;;73.32;37.20;;;5.60;99.90;;;;;;5052794;28;20060;-69
2021/11/16 05:41:14;;;;;;;74.00;37.95;;;5.70;99.90;;;;;;5056985;28;20041;-69
2021/11/16 05:43:42;;;;;;;80.40;37.25;;;5.70;99.90;;;;;;5057699;28;20033;-69
2021/11/16 05:46:08;;;;;;;73.60;37.58;;;5.60;99.90;;;;;;5057459;28;20040;-69
2021/11/16 05:48:40;;;;;;;74.93;35.83;;;5.70;99.90;;;;;;5055599;28;20052;-69
2021/11/16 05:51:07;;;;;;;73.18;37.50;;;5.70;99.90;;;;;;5058503;28;20040;-69
2021/11/16 05:53:34;;;;;;;71.82;35.85;;;5.70;99.90;;;;;;5057962;28;20049;-69
2021/11/16 05:55:59;;;;;;;75.18;36.13;;;5.80;99.90;;;;;;5044741;28;20588;-69
2021/11/16 05:58:25;;;;;;;77.13;37.15;;;5.80;99.90;;;;;;5055532;28;20044;-69
2021/11/16 06:00:51;;;;;;;72.15;36.13;;;5.70;99.90;;;;;;5058075;28;20524;-69
2021/11/16 06:03:17;;;;;;;78.43;36.83;;;5.70;99.90;;;;;;5061247;28;20470;-69
2021/11/16 06:05:44;;;;;;;79.53;35.45;;;5.70;99.90;;;;;;5059981;28;20040;-69
2021/11/16 06:08:19;;;;;;;70.90;34.50;;;5.70;99.90;;;;;;5090464;28;20028;-69
2021/11/16 06:10:45;;;;;;;74.53;36.20;;;5.70;99.90;;;;;;5061275;28;20041;-69
2021/11/16 06:13:10;;;;;;;74.35;36.22;;;5.60;99.90;;;;;;5041989;28;20055;-69
2021/11/16 06:15:36;;;;;;;80.97;38.03;;;5.60;99.90;;;;;;5060042;28;20495;-69
2021/11/16 06:18:02;;;;;;;72.55;37.45;;;5.50;99.90;;;;;;5042024;28;20041;-69
2021/11/16 06:20:30;;;;;;;80.82;37.72;;;5.50;99.90;;;;;;5058217;28;20040;-69
2021/11/16 06:22:56;;;;;;;75.30;38.45;;;5.60;99.90;;;;;;5056679;28;20040;-69
2021/11/16 06:25:22;;;;;;;67.30;35.03;;;5.60;99.90;;;;;;5056323;28;20040;-69
2021/11/16 06:27:48;;;;;;;83.07;38.72;;;5.60;99.90;;;;;;5059021;28;20048;-69
2021/11/16 06:30:13;;;;;;;71.78;35.35;;;5.60;99.90;;;;;;5062068;28;20040;-69
2021/11/16 06:32:39;;;;;;;67.50;33.58;;;5.60;99.90;;;;;;5090056;28;20102;-69
2021/11/16 06:35:05;;;;;;;67.90;33.83;;;5.50;99.90;;;;;;5062012;28;20051;-69
2021/11/16 06:37:31;;;;;;;70.63;33.38;;;5.50;99.90;;;;;;5041167;28;20056;-70
2021/11/16 06:39:56;;;;;;;63.13;32.90;;;5.50;99.90;;;;;;5057942;28;20039;-69
2021/11/16 06:42:22;;;;;;;72.38;35.20;;;5.40;99.90;;;;;;5060329;28;20464;-69
2021/11/16 06:44:48;;;;;;;70.93;31.65;;;5.50;99.90;;;;;;5057637;28;20151;-69
2021/11/16 06:47:14;;;;;;;63.22;31.73;;;5.40;99.90;;;;;;5058842;28;20041;-69
2021/11/16 06:49:44;;;;;;;65.97;32.67;;;5.50;99.90;;;;;;5054826;28;20082;-69
2021/11/16 06:52:10;;;;;;;62.80;30.58;;;5.60;99.90;;;;;;5061124;28;20037;-69
2021/11/16 06:54:36;;;;;;;61.05;31.10;;;5.60;99.90;;;;;;5063932;28;20044;-69
2021/11/16 06:57:02;;;;;;;69.72;31.90;;;5.60;99.90;;;;;;5091983;28;20491;-69
2021/11/16 06:59:27;;;;;;;70.95;33.20;;;5.60;99.90;;;;;;5053184;28;20048;-69
2021/11/16 07:01:55;;;;;;;72.72;32.15;;;5.70;99.90;;;;;;5074434;28;20483;-69
2021/11/16 07:04:20;;;;;;;74.30;35.35;;;5.70;99.90;;;;;;5054796;28;20059;-69
2021/11/16 07:06:50;;;;;;;71.75;34.17;;;5.70;99.90;;;;;;5057467;28;20033;-69
2021/11/16 07:09:17;;;;;;;71.75;33.78;;;5.60;99.90;;;;;;5054816;28;20067;-69
2021/11/16 07:11:49;;;;;;;71.40;34.20;;;5.70;99.90;;;;;;5055754;28;20039;-69
2021/11/16 07:14:17;;;;;;;76.43;34.55;;;5.70;99.90;;;;;;5058158;28;20044;-69
2021/11/16 07:16:55;;;;;;;75.72;33.72;;;5.70;99.90;;;;;;5055839;28;20576;-69
2021/11/16 07:19:42;;;;;;;69.93;33.22;;;5.70;99.90;;;;;;5056207;28;20094;-69
2021/11/16 07:22:13;;;;;;;75.05;35.00;;;5.70;99.90;;;;;;5054940;28;20120;-69
2021/11/16 07:24:43;;;;;;;80.20;36.47;;;5.70;99.90;;;;;;5091019;28;20561;-69
2021/11/16 07:27:10;;;;;;;73.72;35.63;;;5.70;99.90;;;;;;5089781;28;20387;-69
2021/11/16 07:29:42;;;;;;;75.07;34.45;;;5.70;99.90;;;;;;5055188;28;20028;-69
2021/11/16 07:32:12;;;;;;;71.85;33.85;;;5.70;99.90;;;;;;5059163;28;20032;-69
2021/11/16 07:34:39;;;;;;;79.00;35.80;;;5.80;99.90;;;;;;5058570;28;20040;-69
2021/11/16 07:37:09;;;;;;;71.97;34.70;;;5.80;99.90;;;;;;5036453;28;20044;-69
2021/11/16 07:39:56;;;;;;;67.70;33.22;;;5.80;99.90;;;;;;5059083;28;20056;-69
2021/11/16 07:42:29;;;;;;;77.30;36.58;;;5.90;99.90;;;;;;5062448;28;20456;-69
2021/11/16 07:45:19;;;;;;;74.32;34.42;;;5.80;99.90;;;;;;5060291;28;20041;-69
2021/11/16 07:47:57;;;;;;;76.85;36.10;;;5.70;99.90;;;;;;5059442;28;20041;-69
2021/11/16 07:50:50;;;;;;;80.65;36.92;;;5.70;99.90;;;;;;5060666;28;20068;-69
2021/11/16 07:53:32;;;;;;;75.55;36.17;;;5.60;99.90;;;;;;5061960;28;20051;-69
2021/11/16 07:56:01;;;;;;;81.28;35.67;;;5.60;99.90;;;;;;5061390;28;20032;-69
2021/11/16 07:58:36;;;;;;;76.65;34.17;;;5.70;99.90;;;;;;5057070;28;20159;-69
2021/11/16 08:02:23;;;;;;;79.20;36.22;;;5.70;99.90;;;;;;5061742;28;20487;-69
2021/11/16 08:06:55;;;;;;;73.72;35.65;;;5.70;99.90;;;;;;5061920;28;20060;-69
2021/11/16 08:09:37;;;;;;;80.28;35.70;;;5.70;99.90;;;;;;5057346;28;20153;-69
2021/11/16 08:14:42;;;;;;;79.82;34.78;;;5.60;99.90;;;;;;5058382;28;20475;-69
2021/11/16 08:17:09;;;;;;;75.95;35.92;;;5.70;99.90;;;;;;5059776;28;20051;-69
2021/11/16 08:19:40;;;;;;;71.47;33.38;;;5.60;99.90;;;;;;5058493;28;20053;-69
2021/11/16 08:22:12;;;;;;;71.25;32.17;;;5.70;99.90;;;;;;5060631;28;20037;-69
2021/11/16 08:24:41;;;;;;;63.60;30.25;;;5.60;99.90;;;;;;5061172;28;20045;-69
2021/11/16 08:27:22;;;;;;;72.35;31.63;;;5.60;99.90;;;;;;5058374;28;20094;-69
2021/11/16 08:29:51;;;;;;;68.82;31.80;;;5.50;99.90;;;;;;5059265;28;20416;-69
2021/11/16 08:32:23;;;;;;;62.97;29.95;;;5.60;99.90;;;;;;5059288;28;20044;-69
2021/11/16 08:34:54;;;;;;;65.72;31.85;;;5.70;99.90;;;;;;5059222;28;20048;-69
2021/11/16 08:37:30;;;;;;;66.07;30.55;;;5.60;99.90;;;;;;5058596;28;20127;-69
2021/11/16 08:39:59;;;;;;;;;;;5.70;99.90;;;;;;5089867;28;20052;-69
2021/11/16 08:42:30;;;;;;;69.30;31.83;;;5.60;99.90;;;;;;5058796;28;20532;-69
2021/11/16 08:45:12;;;;;;;65.82;30.60;;;5.70;99.90;;;;;;5058099;28;20875;-69
2021/11/16 08:47:51;;;;;;;72.10;32.53;;;5.70;99.90;;;;;;5059091;28;20041;-70
2021/11/16 08:50:28;;;;;;;66.60;32.33;;;5.70;99.90;;;;;;5054562;28;20040;-69
2021/11/16 08:52:56;;;;;;;69.32;32.42;;;5.70;99.90;;;;;;5058480;28;20054;-69
2021/11/16 08:55:28;;;;;;;73.57;32.78;;;5.70;99.90;;;;;;5056845;28;20052;-69
2021/11/16 08:57:55;;;;;;;70.15;31.77;;;5.70;99.90;;;;;;5058625;28;20047;-69
2021/11/16 09:00:33;;;;;;;74.63;33.50;;;5.70;99.90;;;;;;5058700;28;20075;-69
2021/11/16 09:03:02;;;;;;;81.20;33.70;;;5.70;99.90;;;;;;5059697;28;20037;-69
2021/11/16 09:05:35;;;;;;;68.05;33.05;;;5.60;99.90;;;;;;5059665;28;20037;-69
2021/11/16 09:08:03;;;;;;;75.00;34.50;;;5.50;99.90;;;;;;5088033;28;20074;-69
2021/11/16 09:10:39;;;;;;;76.45;32.55;;;5.50;99.90;;;;;;5059619;28;20512;-69
2021/11/16 09:13:07;;;;;;;65.10;31.15;;;5.60;99.90;;;;;;5090538;28;20052;-69
2021/11/16 09:15:45;;;;;;;69.72;31.63;;;5.60;99.90;;;;;;5058874;28;20048;-69
2021/11/16 09:18:39;;;;;;;74.15;31.42;;;5.60;99.90;;;;;;5089019;28;20076;-70
2021/11/16 09:21:15;;;;;;;73.65;31.52;;;5.60;99.90;;;;;;5056473;28;20106;-70
2021/11/16 09:23:50;;;;;;;66.85;31.80;;;5.50;99.90;;;;;;5040974;28;20143;-69
2021/11/16 09:26:39;;;;;;;74.78;32.50;;;5.60;99.90;;;;;;5057209;28;20047;-69
2021/11/16 09:29:08;;;;;;;79.03;32.38;;;5.50;99.90;;;;;;5055325;28;20066;-69
2021/11/16 09:31:36;;;;;;;75.45;31.15;;;5.50;99.90;;;;;;5059296;28;20051;-69
2021/11/16 09:34:05;;;;;;;70.00;31.40;;;5.50;99.90;;;;;;5056769;28;20506;-69
2021/11/16 09:36:36;;;;;;;64.97;30.85;;;5.50;99.90;;;;;;5057172;28;20963;-69
2021/11/16 09:39:08;;;;;;;68.93;30.77;;;5.50;99.90;;;;;;5053471;28;20075;-69
2021/11/16 09:41:36;;;;;;;70.75;32.10;;;5.50;99.90;;;;;;5057868;28;20049;-69
2021/11/16 09:44:27;;;;;;;71.50;31.38;;;5.40;99.90;;;;;;5057714;28;20041;-69
2021/11/16 09:46:57;;;;;;;62.13;29.55;;;5.40;99.90;;;;;;5059047;28;20051;-69
2021/11/16 09:49:59;;;;;;;64.43;31.33;;;5.50;99.90;;;;;;5055649;28;20025;-69
2021/11/16 09:52:43;;;;;;;70.88;29.23;;;5.60;99.90;;;;;;5046328;28;20048;-69
2021/11/16 09:55:21;;;;;;;74.60;32.30;;;5.60;99.90;;;;;;5057779;28;20053;-69
2021/11/16 09:57:57;;;;;;;81.47;33.72;;;5.60;99.90;;;;;;5054901;28;20084;-69
2021/11/16 10:00:27;;;;;;;73.25;31.67;;;5.50;99.90;;;;;;5057129;28;20094;-69
2021/11/16 10:03:12;;;;;;;76.65;31.98;;;5.40;99.90;;;;;;5059825;28;20051;-69
2021/11/16 10:05:52;;;;;;;76.10;33.55;;;5.40;99.90;;;;;;5058904;28;20079;-69
2021/11/16 10:08:19;;;;;;;81.07;35.25;;;5.40;99.90;;;;;;5070083;28;21120;-69
2021/11/16 10:10:57;;;;;;;83.55;34.50;;;5.40;99.90;;;;;;5056670;28;20553;-69
2021/11/16 10:13:26;;;;;;;72.25;32.72;;;5.40;99.90;;;;;;5058598;28;20087;-69
2021/11/16 10:15:55;;;;;;;86.78;33.80;;;5.50;99.90;;;;;;5056116;28;20087;-69
2021/11/16 10:18:23;;;;;;;78.80;35.15;;;5.50;99.90;;;;;;5052595;28;20044;-69
2021/11/16 10:20:51;;;;;;;78.40;32.28;;;5.60;99.90;;;;;;5054438;28;20080;-69
2021/11/16 10:23:31;;;;;;;67.30;30.77;;;5.60;99.90;;;;;;5059048;28;20381;-69
2021/11/16 10:25:58;;;;;;;69.57;31.67;;;5.70;99.90;;;;;;5076040;28;20094;-70
2021/11/16 10:28:24;;;;;;;83.97;35.33;;;5.80;99.90;;;;;;5069884;28;21444;-69
2021/11/16 10:30:51;;;;;;;71.10;32.22;;;5.60;99.90;;;;;;5055375;28;20059;-70
2021/11/16 10:33:22;;;;;;;72.65;33.85;;;5.60;99.90;;;;;;5060248;28;20051;-69
2021/11/16 10:35:58;;;;;;;80.07;32.05;;;5.60;99.90;;;;;;5056912;28;20051;-69
2021/11/16 10:38:29;;;;;;;82.63;32.30;;;5.70;99.90;;;;;;5069643;28;20118;-69
2021/11/16 10:40:58;;;;;;;78.90;34.35;;;5.70;99.90;;;;;;5058847;28;20040;-69
2021/11/16 10:43:35;;;;;;;78.47;30.98;;;5.70;99.90;;;;;;5056821;28;20053;-69
2021/11/16 10:46:03;;;;;;;75.25;32.50;;;5.70;99.90;;;;;;5058626;28;20064;-69
2021/11/16 10:48:29;;;;;;;67.55;31.38;;;5.80;99.90;;;;;;5052873;28;20900;-69
2021/11/16 10:50:55;;;;;;;68.72;32.15;;;5.70;99.90;;;;;;5061066;28;20048;-69
2021/11/16 10:53:23;;;;;;;73.28;33.47;;;5.80;99.90;;;;;;5058911;28;20043;-69
2021/11/16 10:55:55;;;;;;;71.88;32.63;;;5.80;99.90;;;;;;5055109;28;20052;-69
2021/11/16 10:58:41;;;;;;;71.70;32.30;;;5.80;99.90;;;;;;5053050;28;20048;-70
2021/11/16 11:01:13;;;;;;;79.80;33.63;;;5.90;99.90;;;;;;5059623;28;20079;-69
2021/11/16 11:03:45;;;;;;;66.38;32.10;;;5.90;99.90;;;;;;5058729;28;20639;-69
2021/11/16 11:06:14;;;;;;;70.90;32.67;;;5.90;99.90;;;;;;5058189;28;20090;-69
2021/11/16 11:08:46;;;;;;;72.57;33.25;;;5.90;99.90;;;;;;5068226;28;20028;-69
2021/11/16 11:11:18;;;;;;;83.55;32.28;;;5.90;99.90;;;;;;5057783;28;20839;-69
2021/11/16 11:13:52;;;;;;;79.93;32.97;;;6.00;99.90;;;;;;5059648;28;20051;-70
2021/11/16 11:16:19;;;;;;;76.10;32.42;;;6.00;99.90;;;;;;5062721;28;20048;-69
2021/11/16 11:18:48;;;;;;;72.82;32.55;;;5.90;99.90;;;;;;5057783;28;20044;-69
2021/11/16 11:21:36;;;;;;;69.30;29.52;;;6.00;99.90;;;;;;5061977;28;20039;-69
2021/11/16 11:24:12;;;;;;;61.05;29.40;;;6.00;99.90;;;;;;5058840;28;20037;-69
2021/11/16 11:26:45;;;;;;;63.72;29.52;;;6.00;99.90;;;;;;5058120;28;20048;-69
2021/11/16 11:29:35;;;;;;;66.95;30.67;;;6.20;99.90;;;;;;5057420;28;20047;-69
2021/11/16 11:32:10;;;;;;;61.65;29.00;;;6.10;99.90;;;;;;5060572;28;20036;-69
2021/11/16 11:34:41;;;;;;;64.78;29.83;;;6.10;99.90;;;;;;5059682;28;20044;-69
2021/11/16 11:37:12;;;;;;;66.80;29.60;;;6.10;99.90;;;;;;5061219;28;20586;-69
2021/11/16 11:39:38;;;;;;;60.60;28.25;;;6.10;99.90;;;;;;5057326;28;20084;-69
2021/11/16 11:42:08;;;;;;;65.68;28.63;;;6.10;99.90;;;;;;5059984;28;20115;-69
2021/11/16 11:44:41;;;;;;;65.75;29.00;;;6.10;99.90;;;;;;5060539;28;20217;-69
2021/11/16 11:47:07;;;;;;;62.30;29.45;;;6.10;99.90;;;;;;5093831;28;20056;-69
2021/11/16 11:49:34;;;;;;;60.65;29.13;;;6.10;99.90;;;;;;5057065;28;20122;-69
2021/11/16 11:52:03;;;;;;;66.40;30.80;;;6.10;99.90;;;;;;5057760;28;20494;-69
2021/11/16 11:54:29;;;;;;;61.10;30.15;;;6.10;99.90;;;;;;5062935;28;20535;-69
2021/11/16 11:56:55;;;;;;;65.90;30.70;;;6.00;99.90;;;;;;5058258;28;20052;-69
2021/11/16 11:59:25;;;;;;;59.22;28.15;;;6.00;99.90;;;;;;5090345;28;20071;-69
2021/11/16 12:01:52;;;;;;;64.00;29.95;;;6.00;99.90;;;;;;5093740;28;20090;-69
2021/11/16 12:04:19;;;;;;;63.20;30.10;;;6.10;99.90;;;;;;5059455;28;20049;-69
2021/11/16 12:06:49;;;;;;;60.47;28.73;;;6.00;99.90;;;;;;5063555;28;20147;-69
2021/11/16 12:09:16;;;;;;;57.92;27.33;;;6.00;99.90;;;;;;5057479;28;20170;-69
2021/11/16 12:11:43;;;;;;;71.18;29.02;;;6.00;99.90;;;;;;5059745;28;20136;-69
2021/11/16 12:14:18;;;;;;;63.85;30.63;;;6.00;99.90;;;;;;5064081;28;20119;-69
2021/11/16 12:17:00;;;;;;;61.22;27.95;;;5.90;99.90;;;;;;5062337;28;20036;-69
2021/11/16 12:19:42;;;;;;;58.55;28.33;;;5.90;99.90;;;;;;5056483;28;20072;-69
2021/11/16 12:22:20;;;;;;;57.92;27.90;;;5.90;99.90;;;;;;5064421;28;20109;-69
2021/11/16 12:24:47;;;;;;;58.47;29.00;;;5.90;99.90;;;;;;5060947;28;20123;-69
2021/11/16 12:27:15;;;;;;;58.42;29.13;;;5.80;99.90;;;;;;5062000;28;20399;-69
2021/11/16 12:29:51;;;;;;;61.60;28.85;;;5.80;99.90;;;;;;5057655;28;20140;-69
2021/11/16 12:32:21;;;;;;;;;;;5.80;99.90;;;;;;5062466;28;20076;-69
2021/11/16 12:35:04;;;;;;;53.65;27.20;;;5.90;99.90;;;;;;5065465;28;20842;-69
2021/11/16 12:37:31;;;;;;;50.78;26.02;;;5.90;99.90;;;;;;5062406;28;20553;-69
2021/11/16 12:40:01;;;;;;;52.40;26.20;;;5.90;99.90;;;;;;5061223;28;20028;-69
2021/11/16 12:42:27;;;;;;;49.50;24.48;;;5.90;99.90;;;;;;5063975;28;20041;-69
2021/11/16 12:44:57;;;;;;;46.15;23.58;;;5.90;99.90;;;;;;5064464;28;20047;-69
2021/11/16 12:47:23;;;;;;;52.50;25.77;;;5.90;99.90;;;;;;5059555;28;20044;-69
2021/11/16 12:49:48;;;;;;;54.60;25.90;;;5.90;99.90;;;;;;5061600;28;20481;-69
2021/11/16 12:52:23;;;;;;;55.83;26.73;;;6.00;99.90;;;;;;5063123;28;20032;-69
2021/11/16 12:54:50;;;;;;;51.00;26.00;;;5.90;99.90;;;;;;5062040;28;20044;-68
2021/11/16 12:57:22;;;;;;;54.97;27.08;;;5.90;99.90;;;;;;5060284;28;20115;-69
2021/11/16 12:59:47;;;;;;;63.47;29.85;;;5.90;99.90;;;;;;5058960;28;20741;-68
2021/11/16 13:02:21;;;;;;;59.50;29.83;;;5.90;99.90;;;;;;5061239;28;20053;-69
2021/11/16 13:04:51;;;;;;;63.75;30.55;;;5.90;99.90;;;;;;5059417;28;20047;-68
2021/11/16 13:07:19;;;;;;;59.17;28.98;;;5.90;99.90;;;;;;5093528;28;20040;-69
2021/11/16 13:09:51;;;;;;;63.85;32.85;;;5.90;99.90;;;;;;5058362;28;20044;-69